地図

経路データ

SID SEASON NUMBER BASIN SUBBASIN NAME ISO_TIME NATURE LAT LON WMO_WIND WMO_PRES WMO_AGENCY TRACK_TYPE DIST2LAND LANDFALL IFLAG USA_AGENCY USA_ATCF_ID USA_LAT USA_LON USA_RECORD USA_STATUS USA_WIND USA_PRES USA_SSHS USA_R34_NE USA_R34_SE USA_R34_SW USA_R34_NW USA_R50_NE USA_R50_SE USA_R50_SW USA_R50_NW USA_R64_NE USA_R64_SE USA_R64_SW USA_R64_NW USA_POCI USA_ROCI USA_RMW USA_EYE TOKYO_LAT TOKYO_LON TOKYO_GRADE TOKYO_WIND TOKYO_PRES TOKYO_R50_DIR TOKYO_R50_LONG TOKYO_R50_SHORT TOKYO_R30_DIR TOKYO_R30_LONG TOKYO_R30_SHORT TOKYO_LAND CMA_LAT CMA_LON CMA_CAT CMA_WIND CMA_PRES HKO_LAT HKO_LON HKO_CAT HKO_WIND HKO_PRES NEWDELHI_LAT NEWDELHI_LON NEWDELHI_GRADE NEWDELHI_WIND NEWDELHI_PRES NEWDELHI_CI NEWDELHI_DP NEWDELHI_POCI REUNION_LAT REUNION_LON REUNION_TYPE REUNION_WIND REUNION_PRES REUNION_TNUM REUNION_CI REUNION_RMW REUNION_R34_NE REUNION_R34_SE REUNION_R34_SW REUNION_R34_NW REUNION_R50_NE REUNION_R50_SE REUNION_R50_SW REUNION_R50_NW REUNION_R64_NE REUNION_R64_SE REUNION_R64_SW REUNION_R64_NW BOM_LAT BOM_LON BOM_TYPE BOM_WIND BOM_PRES BOM_TNUM BOM_CI BOM_RMW BOM_R34_NE BOM_R34_SE BOM_R34_SW BOM_R34_NW BOM_R50_NE BOM_R50_SE BOM_R50_SW BOM_R50_NW BOM_R64_NE BOM_R64_SE BOM_R64_SW BOM_R64_NW BOM_ROCI BOM_POCI BOM_EYE BOM_POS_METHOD BOM_PRES_METHOD NADI_LAT NADI_LON NADI_CAT NADI_WIND NADI_PRES WELLINGTON_LAT WELLINGTON_LON WELLINGTON_WIND WELLINGTON_PRES DS824_LAT DS824_LON DS824_STAGE DS824_WIND DS824_PRES TD9636_LAT TD9636_LON TD9636_STAGE TD9636_WIND TD9636_PRES TD9635_LAT TD9635_LON TD9635_WIND TD9635_PRES TD9635_ROCI NEUMANN_LAT NEUMANN_LON NEUMANN_CLASS NEUMANN_WIND NEUMANN_PRES MLC_LAT MLC_LON MLC_CLASS MLC_WIND MLC_PRES USA_GUST BOM_GUST BOM_GUST_PER REUNION_GUST REUNION_GUST_PER USA_SEAHGT USA_SEARAD_NE USA_SEARAD_SE USA_SEARAD_SW USA_SEARAD_NW STORM_SPEED STORM_DIR
1997279N12263 1997 93 EP MM PAULINE 1997-10-05 12:00:00 TS 12.2000 -96.6000 25 1009 hurdat_epa main 380 380 O_____________ hurdat_epa EP181997 12.2000 -96.6000 TD 25 1009 -1 6 99
1997279N12263 1997 93 EP MM PAULINE 1997-10-05 15:00:00 TS 12.1501 -96.2900 main 382 382 P_____________ EP181997 12.1501 -96.2900 TD 25 1009 -1 6 100
1997279N12263 1997 93 EP MM PAULINE 1997-10-05 18:00:00 TS 12.1000 -96.0000 25 1009 hurdat_epa main 397 397 O_____________ hurdat_epa EP181997 12.1000 -96.0000 TD 25 1009 -1 5 101
1997279N12263 1997 93 EP MM PAULINE 1997-10-05 21:00:00 TS 12.0500 -95.7425 main 414 414 P_____________ EP181997 12.0500 -95.7425 TD 27 1008 -1 5 102
1997279N12263 1997 93 EP MM PAULINE 1997-10-06 00:00:00 TS 12.0000 -95.5000 30 1008 hurdat_epa main 420 420 O_____________ hurdat_epa EP181997 12.0000 -95.5000 TD 30 1008 -1 5 103
1997279N12263 1997 93 EP MM PAULINE 1997-10-06 03:00:00 TS 11.9425 -95.2500 main 435 420 P_____________ EP181997 11.9425 -95.2500 TD 32 1006 -1 5 102
1997279N12263 1997 93 EP MM PAULINE 1997-10-06 06:00:00 TS 11.9000 -95.0000 35 1005 hurdat_epa main 420 397 O_____________ hurdat_epa EP181997 11.9000 -95.0000 TS 35 1005 0 5 98
1997279N12263 1997 93 EP MM PAULINE 1997-10-06 09:00:00 TS 11.8700 -94.7350 main 397 383 P_____________ EP181997 11.8700 -94.7350 TS 40 1002 0 5 90
1997279N12263 1997 93 EP MM PAULINE 1997-10-06 12:00:00 TS 11.9000 -94.5000 45 1000 hurdat_epa main 383 360 O_____________ hurdat_epa EP181997 11.9000 -94.5000 TS 45 1000 0 4 69
1997279N12263 1997 93 EP MM PAULINE 1997-10-06 15:00:00 TS 12.0275 -94.3200 main 360 336 P_____________ EP181997 12.0275 -94.3200 TS 50 995 0 4 44
1997279N12263 1997 93 EP MM PAULINE 1997-10-06 18:00:00 TS 12.2000 -94.2000 55 990 hurdat_epa main 336 320 O_____________ hurdat_epa EP181997 12.2000 -94.2000 TS 55 990 0 4 31
1997279N12263 1997 93 EP MM PAULINE 1997-10-06 21:00:00 TS 12.3425 -94.1200 main 320 303 P_____________ EP181997 12.3425 -94.1200 TS 62 983 0 3 17
1997279N12263 1997 93 EP MM PAULINE 1997-10-07 00:00:00 TS 12.5000 -94.1000 70 977 hurdat_epa main 303 287 O_____________ hurdat_epa EP181997 12.5000 -94.1000 HU 70 977 1 4 4
1997279N12263 1997 93 EP MM PAULINE 1997-10-07 03:00:00 TS 12.7000 -94.1200 main 287 279 P_____________ EP181997 12.7000 -94.1200 HU 85 966 2 4 347
1997279N12263 1997 93 EP MM PAULINE 1997-10-07 06:00:00 TS 12.9000 -94.2000 100 955 hurdat_epa main 279 272 O_____________ hurdat_epa EP181997 12.9000 -94.2000 HU 100 955 3 4 330
1997279N12263 1997 93 EP MM PAULINE 1997-10-07 09:00:00 TS 13.0575 -94.3275 main 272 271 P_____________ EP181997 13.0575 -94.3275 HU 107 951 3 4 316
1997279N12263 1997 93 EP MM PAULINE 1997-10-07 12:00:00 TS 13.2000 -94.5000 115 948 hurdat_epa main 279 279 O_____________ hurdat_epa EP181997 13.2000 -94.5000 HU 115 948 4 5 309
1997279N12263 1997 93 EP MM PAULINE 1997-10-07 15:00:00 TS 13.3500 -94.6925 main 279 279 P_____________ EP181997 13.3500 -94.6925 HU 112 948 3 5 308
1997279N12263 1997 93 EP MM PAULINE 1997-10-07 18:00:00 TS 13.5000 -94.9000 110 949 hurdat_epa main 282 263 O_____________ hurdat_epa EP181997 13.5000 -94.9000 HU 110 949 3 5 306
1997279N12263 1997 93 EP MM PAULINE 1997-10-07 21:00:00 TS 13.6425 -95.1075 main 263 233 P_____________ EP181997 13.6425 -95.1075 HU 105 952 3 5 308
1997279N12263 1997 93 EP MM PAULINE 1997-10-08 00:00:00 TS 13.8000 -95.3000 100 955 hurdat_epa main 233 208 O_____________ hurdat_epa EP181997 13.8000 -95.3000 HU 100 955 3 5 316
1997279N12263 1997 93 EP MM PAULINE 1997-10-08 03:00:00 TS 13.9925 -95.4575 main 204 179 P_____________ EP181997 13.9925 -95.4575 HU 100 957 3 5 324
1997279N12263 1997 93 EP MM PAULINE 1997-10-08 06:00:00 TS 14.2000 -95.6000 100 959 hurdat_epa main 179 155 O_____________ hurdat_epa EP181997 14.2000 -95.6000 HU 100 959 3 5 324
1997279N12263 1997 93 EP MM PAULINE 1997-10-08 09:00:00 TS 14.3775 -95.7426 main 155 127 P_____________ EP181997 14.3775 -95.7426 HU 105 956 3 5 324
1997279N12263 1997 93 EP MM PAULINE 1997-10-08 12:00:00 TS 14.6000 -95.9000 110 954 hurdat_epa main 127 92 O_____________ hurdat_epa EP181997 14.6000 -95.9000 HU 110 954 3 6 334
1997279N12263 1997 93 EP MM PAULINE 1997-10-08 15:00:00 TS 14.9272 -96.0254 main 92 44 P_____________ EP181997 14.9272 -96.0254 HU 112 951 3 8 331
1997279N12263 1997 93 EP MM PAULINE 1997-10-08 18:00:00 TS 15.3000 -96.3000 115 948 hurdat_epa main 44 10 O_____________ hurdat_epa EP181997 15.3000 -96.3000 HU 115 948 4 11 311
1997279N12263 1997 93 EP MM PAULINE 1997-10-08 21:00:00 TS 15.6502 -96.8750 main 10 0 P_____________ EP181997 15.6502 -96.8750 HU 105 954 3 14 299
1997279N12263 1997 93 EP MM PAULINE 1997-10-09 00:00:00 TS 16.0000 -97.6000 95 960 hurdat_epa main 0 0 O_____________ hurdat_epa EP181997 16.0000 -97.6000 L HU 95 960 2 15 297
1997279N12263 1997 93 EP MM PAULINE 1997-10-09 03:00:00 TS 16.3573 -98.2926 main 0 0 P_____________ EP181997 16.3573 -98.2926 HU 82 966 1 15 298
1997279N12263 1997 93 EP MM PAULINE 1997-10-09 06:00:00 TS 16.7000 -99.0000 70 973 hurdat_epa main 0 0 O_____________ hurdat_epa EP181997 16.7000 -99.0000 HU 70 973 1 15 295
1997279N12263 1997 93 EP MM PAULINE 1997-10-09 09:00:00 TS 17.0075 -99.7301 main 0 0 P_____________ EP181997 17.0075 -99.7301 HU 65 981 1 15 294
1997279N12263 1997 93 EP MM PAULINE 1997-10-09 12:00:00 TS 17.3000 -100.400 60 989 hurdat_epa main 0 0 O_____________ hurdat_epa EP181997 17.3000 -100.400 TS 60 989 0 13 296
1997279N12263 1997 93 EP MM PAULINE 1997-10-09 15:00:00 TS 17.5923 -100.960 main 0 0 P_____________ EP181997 17.5923 -100.960 TS 55 994 0 11 302
1997279N12263 1997 93 EP MM PAULINE 1997-10-09 18:00:00 TS 17.9000 -101.400 50 1000 hurdat_epa main 0 0 O_____________ hurdat_epa EP181997 17.9000 -101.400 TS 50 1000 0 10 312
1997279N12263 1997 93 EP MM PAULINE 1997-10-09 21:00:00 TS 18.2498 -101.730 main 0 0 P_____________ EP181997 18.2498 -101.730 TS 45 1002 0 9 321
1997279N12263 1997 93 EP MM PAULINE 1997-10-10 00:00:00 TS 18.6000 -102.000 40 1005 hurdat_epa main 0 0 O_____________ hurdat_epa EP181997 18.6000 -102.000 TS 40 1005 0 9 321
1997279N12263 1997 93 EP MM PAULINE 1997-10-10 03:00:00 TS 18.9127 -102.290 main 0 0 P_____________ EP181997 18.9127 -102.290 TS 35 1007 0 8 317
1997279N12263 1997 93 EP MM PAULINE 1997-10-10 06:00:00 TS 19.2000 -102.600 30 1009 hurdat_epa main 0 O_____________ hurdat_epa EP181997 19.2000 -102.600 TD 30 1009 -1 8 314

IBTrACS Databaseについて

本データベースは、米国NOAAが公開する1842年以降の世界の熱帯低気圧のベストトラックデータアーカイブInternational Best Track Archive for Climate Stewardship (IBTrACS)を、ウェブで閲覧しやすい形式に変換したものです。

最終更新日:2021-11-26